createdAt,value
2023-04-21T00:01:12.985Z,96.07
2023-04-21T00:03:43.045Z,98.60
2023-04-21T00:06:11.430Z,99.83
2023-04-21T00:08:40.722Z,101.83
2023-04-21T00:11:09.275Z,104.17
2023-04-21T00:13:37.835Z,108.43
2023-04-21T00:16:06.615Z,101.20
2023-04-21T00:18:35.145Z,108.03
2023-04-21T00:21:05.079Z,104.57
2023-04-21T00:23:33.281Z,105.07
2023-04-21T00:26:02.928Z,106.07
2023-04-21T00:28:31.340Z,108.57
2023-04-21T00:30:59.682Z,110.07
2023-04-21T00:33:27.863Z,109.97
2023-04-21T00:35:56.943Z,109.30
2023-04-21T00:38:26.379Z,111.03
2023-04-21T00:40:54.598Z,111.60
2023-04-21T00:43:22.738Z,111.50
2023-04-21T00:45:50.865Z,112.17
2023-04-21T00:48:19.082Z,111.57
2023-04-21T00:50:47.495Z,113.63
2023-04-21T00:53:16.349Z,112.03
2023-04-21T00:55:46.651Z,112.83
2023-04-21T00:58:14.939Z,113.17
2023-04-21T01:00:44.688Z,113.77
2023-04-21T01:03:13.253Z,112.67
2023-04-21T01:05:42.492Z,113.13
2023-04-21T01:08:10.668Z,115.20
2023-04-21T01:10:38.760Z,114.30
2023-04-21T01:13:08.224Z,112.80
2023-04-21T01:15:36.325Z,111.00
2023-04-21T01:18:04.743Z,113.30
2023-04-21T01:20:33.144Z,113.90
2023-04-21T01:23:02.673Z,113.30
2023-04-21T01:25:30.760Z,115.53
2023-04-21T01:27:58.809Z,117.03
2023-04-21T01:30:27.027Z,119.67
2023-04-21T01:32:55.305Z,120.47
2023-04-21T01:35:23.478Z,117.10
2023-04-21T01:37:51.566Z,118.10
2023-04-21T01:40:21.130Z,120.00
2023-04-21T01:42:49.398Z,116.87
2023-04-21T01:45:17.507Z,119.20
2023-04-21T01:47:45.762Z,117.87
2023-04-21T01:50:15.336Z,120.13
2023-04-21T01:52:43.489Z,120.67
2023-04-21T01:55:11.680Z,118.27
2023-04-21T01:57:41.179Z,122.40
2023-04-21T02:00:10.610Z,122.80
2023-04-21T02:02:38.873Z,121.50
2023-04-21T02:05:08.001Z,122.83
2023-04-21T02:07:36.113Z,125.57
2023-04-21T02:10:05.654Z,124.17
2023-04-21T02:12:33.837Z,121.80
2023-04-21T02:15:03.453Z,124.17
2023-04-21T02:17:31.736Z,123.23
2023-04-21T02:20:01.041Z,124.80
2023-04-21T02:22:30.202Z,127.40
2023-04-21T02:24:58.357Z,128.97
2023-04-21T02:27:26.528Z,128.53
2023-04-21T02:29:54.730Z,128.57
2023-04-21T02:32:26.226Z,129.67
2023-04-21T02:34:54.494Z,130.60
2023-04-21T02:37:22.704Z,131.30
2023-04-21T02:39:50.864Z,134.10
2023-04-21T02:42:19.008Z,131.60
2023-04-21T02:44:47.225Z,133.77
2023-04-21T02:47:17.035Z,133.13
2023-04-21T02:49:46.576Z,132.77
2023-04-21T02:52:14.712Z,131.97
2023-04-21T02:54:42.818Z,134.93
2023-04-21T02:57:11.012Z,132.67
2023-04-21T02:59:39.110Z,133.03
2023-04-21T03:02:07.190Z,130.00
2023-04-21T03:04:35.509Z,127.73
2023-04-21T03:07:05.205Z,128.60
2023-04-21T03:09:33.501Z,132.80
2023-04-21T03:12:01.674Z,127.17
2023-04-21T03:14:29.675Z,131.87
2023-04-21T03:16:57.762Z,129.77
2023-04-21T03:19:25.975Z,132.73
2023-04-21T03:21:54.016Z,129.60
2023-04-21T03:24:23.480Z,131.50
2023-04-21T03:26:51.593Z,132.43
2023-04-21T03:29:20.154Z,130.97
2023-04-21T03:31:48.384Z,136.67
2023-04-21T03:34:16.768Z,130.80
2023-04-21T03:36:44.899Z,130.17
2023-04-21T03:39:19.970Z,131.03
2023-04-21T03:41:49.810Z,128.10
2023-04-21T03:44:18.018Z,129.47
2023-04-21T03:46:46.124Z,131.67
2023-04-21T03:49:14.371Z,126.73
2023-04-21T03:51:42.452Z,131.10
2023-04-21T03:54:10.525Z,130.67
2023-04-21T03:56:38.642Z,132.73
2023-04-21T03:59:08.184Z,134.57
2023-04-21T04:01:36.973Z,134.67
2023-04-21T04:04:05.359Z,130.83
2023-04-21T04:06:34.221Z,128.93
2023-04-21T04:09:04.554Z,125.77
2023-04-21T04:11:33.049Z,127.47
2023-04-21T04:14:01.990Z,126.83
2023-04-21T04:16:31.672Z,134.67
2023-04-21T04:19:00.366Z,130.33
2023-04-21T04:21:28.631Z,129.60
2023-04-21T04:23:56.870Z,129.93
2023-04-21T04:26:25.710Z,124.07
2023-04-21T04:28:56.221Z,132.87
2023-04-21T04:31:25.514Z,132.33
2023-04-21T04:33:55.773Z,134.13
2023-04-21T04:36:24.178Z,134.83
2023-04-21T04:38:52.742Z,135.50
2023-04-21T04:41:21.012Z,137.17
2023-04-21T04:43:49.188Z,134.37
2023-04-21T04:46:17.407Z,138.23
2023-04-21T04:48:45.690Z,135.60
2023-04-21T04:51:15.234Z,137.87
2023-04-21T04:53:43.288Z,132.17
2023-04-21T04:56:11.379Z,131.00
2023-04-21T04:58:39.478Z,136.83
2023-04-21T05:01:14.150Z,133.57
2023-04-21T05:03:42.532Z,134.07
2023-04-21T05:06:11.108Z,137.90
2023-04-21T05:08:41.378Z,137.73
2023-04-21T05:11:09.642Z,140.33
2023-04-21T05:13:40.037Z,134.77
2023-04-21T05:16:10.253Z,137.20
2023-04-21T05:18:39.067Z,137.67
2023-04-21T05:21:07.344Z,140.83
2023-04-21T05:23:35.599Z,134.63
2023-04-21T05:26:05.262Z,137.10
2023-04-21T05:28:33.477Z,140.13
2023-04-21T05:31:01.717Z,141.67
2023-04-21T05:33:31.826Z,140.60
2023-04-21T05:36:00.237Z,146.43
2023-04-21T05:38:28.340Z,142.83
2023-04-21T05:40:56.617Z,140.27
2023-04-21T05:43:26.174Z,142.50
2023-04-21T05:45:54.474Z,138.43
2023-04-21T05:48:23.487Z,142.43
2023-04-21T05:50:51.662Z,142.37
2023-04-21T05:53:19.795Z,135.73
2023-04-21T05:55:47.946Z,142.33
2023-04-21T05:58:16.026Z,138.00
2023-04-21T06:00:47.923Z,136.13
2023-04-21T06:03:17.428Z,139.20
2023-04-21T06:05:45.754Z,134.30
2023-04-21T06:08:14.005Z,140.87
2023-04-21T06:10:42.866Z,143.77
2023-04-21T06:13:11.219Z,134.20
2023-04-21T06:15:39.481Z,134.23
2023-04-21T06:18:09.303Z,136.90
2023-04-21T06:20:37.477Z,143.17
2023-04-21T06:23:05.659Z,135.90
2023-04-21T06:25:34.027Z,137.97
2023-04-21T06:28:02.254Z,138.00
2023-04-21T06:30:30.415Z,139.63
2023-04-21T06:32:58.786Z,133.77
2023-04-21T06:35:28.344Z,133.77
2023-04-21T06:37:56.581Z,127.07
2023-04-21T06:40:24.767Z,127.57
2023-04-21T06:42:52.871Z,127.83
2023-04-21T06:45:21.155Z,134.80
2023-04-21T06:47:49.249Z,134.10
2023-04-21T06:50:17.601Z,134.20
2023-04-21T06:52:47.085Z,132.97
2023-04-21T06:55:15.343Z,136.13
2023-04-21T06:57:43.680Z,119.83
2023-04-21T07:00:12.862Z,115.60
2023-04-21T07:02:41.807Z,119.57
2023-04-21T07:05:10.431Z,126.67
2023-04-21T07:07:38.562Z,125.77
2023-04-21T07:10:09.207Z,114.80
2023-04-21T07:12:37.351Z,119.30
2023-04-21T07:15:06.413Z,109.13
2023-04-21T07:17:34.658Z,108.70
2023-04-21T07:20:02.885Z,104.77
2023-04-21T07:22:31.640Z,94.67
2023-04-21T07:25:00.014Z,90.07
2023-04-21T07:27:29.841Z,85.53
2023-04-21T07:29:58.246Z,83.40
2023-04-21T07:32:26.839Z,71.20
2023-04-21T07:34:55.282Z,53.40
2023-04-21T07:37:24.536Z,49.60
2023-04-21T07:39:53.060Z,40.30
2023-04-21T07:42:21.188Z,43.53
2023-04-21T07:44:50.709Z,49.40
2023-04-21T07:47:18.833Z,44.30
2023-04-21T07:49:46.989Z,42.80
2023-04-21T07:52:15.144Z,45.00
2023-04-21T07:54:43.282Z,40.83
2023-04-21T07:57:11.478Z,41.40
2023-04-21T07:59:39.680Z,36.67
2023-04-21T08:02:09.660Z,35.83
2023-04-21T08:04:38.140Z,32.47
2023-04-21T08:07:06.694Z,32.70
2023-04-21T08:09:35.315Z,27.00
2023-04-21T08:12:03.886Z,27.23
2023-04-21T08:14:32.355Z,26.97
2023-04-21T08:17:00.740Z,26.30
2023-04-21T08:19:30.329Z,27.13
2023-04-21T08:21:58.721Z,27.90
2023-04-21T08:24:26.784Z,26.30
2023-04-21T08:26:54.917Z,27.77
2023-04-21T08:29:23.494Z,26.70
2023-04-21T08:31:51.694Z,25.43
2023-04-21T08:34:20.908Z,23.80
2023-04-21T08:36:51.328Z,24.83
2023-04-21T08:39:19.634Z,24.60
2023-04-21T08:41:48.977Z,25.63
2023-04-21T08:44:19.516Z,26.40
2023-04-21T08:46:51.482Z,24.50
2023-04-21T08:49:21.983Z,24.70
2023-04-21T08:51:51.873Z,23.57
2023-04-21T08:54:20.133Z,25.13
2023-04-21T08:56:49.173Z,26.73
2023-04-21T08:59:17.489Z,24.17
2023-04-21T09:02:19.894Z,23.47
2023-04-21T09:04:50.496Z,24.10
2023-04-21T09:07:34.200Z,23.53
2023-04-21T09:10:03.309Z,23.13
2023-04-21T09:12:31.909Z,23.57
2023-04-21T09:15:00.981Z,23.43
2023-04-21T09:17:32.690Z,22.43
2023-04-21T09:20:15.508Z,22.60
2023-04-21T09:22:45.564Z,23.27
2023-04-21T09:25:18.635Z,22.10
2023-04-21T09:27:47.692Z,22.97
2023-04-21T09:30:20.662Z,22.50
2023-04-21T09:32:48.890Z,23.17
2023-04-21T09:35:17.647Z,22.47
2023-04-21T09:37:47.297Z,23.33
2023-04-21T09:40:18.771Z,22.13
2023-04-21T09:42:47.705Z,23.17
2023-04-21T09:45:32.894Z,23.30
2023-04-21T09:48:07.298Z,22.27
2023-04-21T09:51:07.507Z,23.00
2023-04-21T09:53:28.803Z,21.97
2023-04-21T09:55:59.203Z,21.90
2023-04-21T09:58:30.937Z,21.43
2023-04-21T10:00:59.734Z,22.10
2023-04-21T10:03:30.175Z,22.60
2023-04-21T10:05:58.559Z,21.00
2023-04-21T10:08:29.151Z,22.60
2023-04-21T10:10:57.632Z,21.73
2023-04-21T10:13:26.259Z,20.97
2023-04-21T10:16:03.667Z,20.77
2023-04-21T10:18:32.113Z,21.40
2023-04-21T10:21:04.064Z,20.80
2023-04-21T10:23:37.926Z,20.87
2023-04-21T10:26:09.700Z,20.97
2023-04-21T10:28:45.791Z,20.60
2023-04-21T10:31:32.796Z,24.20
2023-04-21T10:34:37.328Z,21.73
2023-04-21T10:37:19.767Z,22.73
2023-04-21T10:39:54.708Z,23.30
2023-04-21T10:42:28.380Z,23.40
2023-04-21T10:45:12.319Z,22.10
2023-04-21T10:47:49.326Z,21.40
2023-04-21T10:50:20.628Z,21.03
2023-04-21T10:53:08.498Z,22.10
2023-04-21T10:55:38.674Z,21.90
2023-04-21T10:58:09.139Z,23.13
2023-04-21T11:00:39.317Z,21.03
2023-04-21T11:03:08.961Z,20.90
2023-04-21T11:05:39.484Z,20.77
2023-04-21T11:08:09.826Z,20.87
2023-04-21T11:10:56.258Z,21.93
2023-04-21T11:13:26.061Z,21.17
2023-04-21T11:15:58.577Z,20.30
2023-04-21T11:18:42.454Z,20.80
2023-04-21T11:21:13.647Z,20.83
2023-04-21T11:23:42.932Z,21.87
2023-04-21T11:26:12.456Z,22.47
2023-04-21T11:28:41.977Z,21.97
2023-04-21T11:31:12.710Z,21.70
2023-04-21T11:33:41.235Z,21.67
2023-04-21T11:36:10.096Z,20.50
2023-04-21T11:38:40.111Z,23.17
2023-04-21T11:41:09.492Z,22.33
2023-04-21T11:43:39.551Z,20.50
2023-04-21T11:46:19.197Z,21.77
2023-04-21T11:48:47.446Z,22.97
2023-04-21T11:51:22.058Z,21.77
2023-04-21T11:53:50.803Z,21.03
2023-04-21T11:56:21.724Z,21.43
2023-04-21T11:58:53.326Z,20.77
2023-04-21T12:01:22.598Z,20.67
2023-04-21T12:03:55.382Z,22.20
2023-04-21T12:06:27.013Z,20.90
2023-04-21T12:09:01.063Z,20.60
2023-04-21T12:11:30.320Z,21.00
2023-04-21T12:14:00.156Z,22.53
2023-04-21T12:16:29.750Z,21.03
2023-04-21T12:18:58.608Z,20.10
2023-04-21T12:21:30.381Z,22.80
2023-04-21T12:23:58.803Z,21.37
2023-04-21T12:26:27.175Z,20.27
2023-04-21T12:28:56.003Z,20.37
2023-04-21T12:31:25.859Z,21.13
2023-04-21T12:33:54.225Z,21.33
2023-04-21T12:36:22.546Z,19.90
2023-04-21T12:38:50.775Z,19.70
2023-04-21T12:41:19.021Z,21.23
2023-04-21T12:43:47.197Z,20.83
2023-04-21T12:46:15.385Z,19.80
2023-04-21T12:48:45.269Z,20.53
2023-04-21T12:51:13.508Z,21.03
2023-04-21T12:53:41.672Z,20.00
2023-04-21T12:56:09.788Z,19.77
2023-04-21T12:58:37.976Z,21.77
2023-04-21T13:01:07.294Z,19.47
2023-04-21T13:03:35.705Z,20.60
2023-04-21T13:06:05.687Z,20.50
2023-04-21T13:08:33.894Z,20.10
2023-04-21T13:11:02.011Z,21.60
2023-04-21T13:13:30.247Z,21.53
2023-04-21T13:15:59.437Z,20.80
2023-04-21T13:18:27.546Z,22.47
2023-04-21T13:20:55.623Z,20.87
2023-04-21T13:23:25.239Z,19.93
2023-04-21T13:25:53.439Z,20.00
2023-04-21T13:28:21.826Z,20.40
2023-04-21T13:30:52.401Z,20.33
2023-04-21T13:33:21.277Z,21.93
2023-04-21T13:35:49.834Z,20.03
2023-04-21T13:38:18.333Z,20.00
2023-04-21T13:40:49.133Z,21.03
2023-04-21T13:43:17.561Z,22.17
2023-04-21T13:45:46.204Z,19.87
2023-04-21T13:48:14.491Z,21.03
2023-04-21T13:50:42.776Z,19.70
2023-04-21T13:53:10.993Z,20.40
2023-04-21T13:55:39.294Z,19.83
2023-04-21T13:58:08.995Z,19.77
2023-04-21T14:00:37.157Z,21.07
2023-04-21T14:03:05.898Z,21.60
2023-04-21T14:05:34.594Z,20.17
2023-04-21T14:08:02.950Z,19.93
2023-04-21T14:10:31.250Z,20.70
2023-04-21T14:12:59.447Z,32.90
2023-04-21T14:15:29.128Z,20.07
2023-04-21T14:17:57.951Z,21.07
2023-04-21T14:20:27.012Z,19.67
2023-04-21T14:22:55.214Z,20.10
2023-04-21T14:25:23.419Z,18.90
2023-04-21T14:27:51.811Z,20.23
2023-04-21T14:30:20.038Z,20.60
2023-04-21T14:32:50.000Z,21.13
2023-04-21T14:35:18.488Z,21.73
2023-04-21T14:37:46.788Z,21.07
2023-04-21T14:40:14.902Z,21.97
2023-04-21T14:42:43.880Z,20.97
2023-04-21T14:45:12.843Z,21.07
2023-04-21T14:47:41.284Z,20.73
2023-04-21T14:50:11.941Z,20.20
2023-04-21T14:52:40.124Z,25.27
2023-04-21T14:55:09.194Z,20.10
2023-04-21T14:57:37.538Z,18.93
2023-04-21T15:00:07.743Z,19.90
2023-04-21T15:02:36.164Z,18.80
2023-04-21T15:05:05.018Z,20.53
2023-04-21T15:07:34.938Z,22.07
2023-04-21T15:10:03.254Z,19.40
2023-04-21T15:12:31.654Z,20.17
2023-04-21T15:15:00.062Z,19.50
2023-04-21T15:17:28.255Z,19.70
2023-04-21T15:19:56.867Z,20.13
2023-04-21T15:22:25.556Z,19.97
2023-04-21T15:24:55.908Z,22.00
2023-04-21T15:27:24.494Z,21.00
2023-04-21T15:29:53.532Z,21.13
2023-04-21T15:32:22.934Z,19.93
2023-04-21T15:34:51.101Z,20.53
2023-04-21T15:37:22.940Z,19.83
2023-04-21T15:39:53.842Z,21.17
2023-04-21T15:42:22.243Z,19.53
2023-04-21T15:44:51.524Z,21.50
2023-04-21T15:47:23.067Z,21.50
2023-04-21T15:49:51.445Z,20.00
2023-04-21T15:52:19.562Z,20.40
2023-04-21T15:54:48.074Z,19.63
2023-04-21T15:57:17.555Z,20.20
2023-04-21T15:59:45.876Z,20.10
2023-04-21T16:02:14.541Z,20.40
2023-04-21T16:04:44.439Z,19.47
2023-04-21T16:07:13.085Z,20.47
2023-04-21T16:09:41.784Z,18.50
2023-04-21T16:12:10.540Z,20.67
2023-04-21T16:14:54.497Z,19.73
2023-04-21T16:17:27.737Z,19.10
2023-04-21T16:19:56.118Z,21.20
2023-04-21T16:22:24.476Z,21.00
2023-04-21T16:24:53.323Z,19.67
2023-04-21T16:27:21.616Z,20.93
2023-04-21T16:29:51.597Z,21.63
2023-04-21T16:32:20.087Z,19.27
2023-04-21T16:34:48.439Z,20.83
2023-04-21T16:37:16.768Z,20.43
2023-04-21T16:39:44.808Z,19.07
2023-04-21T16:42:12.924Z,18.87
2023-04-21T16:44:41.382Z,18.80
2023-04-21T16:47:11.453Z,20.03
2023-04-21T16:49:39.767Z,19.23
2023-04-21T16:52:08.059Z,19.97
2023-04-21T16:54:36.429Z,18.60
2023-04-21T16:57:04.880Z,20.40
2023-04-21T16:59:33.396Z,19.60
2023-04-21T17:02:01.751Z,19.17
2023-04-21T17:04:31.481Z,20.27
2023-04-21T17:06:59.716Z,22.33
2023-04-21T17:09:27.923Z,19.60
2023-04-21T17:11:56.079Z,20.43
2023-04-21T17:14:24.228Z,20.17
2023-04-21T17:16:52.441Z,19.13
2023-04-21T17:19:20.690Z,19.93
2023-04-21T17:21:50.361Z,20.40
2023-04-21T17:24:18.523Z,20.13
2023-04-21T17:26:46.636Z,19.63
2023-04-21T17:29:14.900Z,20.33
2023-04-21T17:31:44.438Z,23.00
2023-04-21T17:34:12.709Z,20.00
2023-04-21T17:36:41.214Z,20.40
2023-04-21T17:39:10.723Z,19.20
2023-04-21T17:41:38.908Z,20.10
2023-04-21T17:44:07.206Z,18.70
2023-04-21T17:46:35.580Z,18.90
2023-04-21T17:49:03.959Z,19.47
2023-04-21T17:51:32.732Z,19.27
2023-04-21T17:54:00.995Z,18.33
2023-04-21T17:56:30.597Z,18.50
2023-04-21T17:58:58.721Z,17.93
2023-04-21T18:01:27.484Z,19.47
2023-04-21T18:03:59.301Z,19.00
2023-04-21T18:06:28.944Z,18.00
2023-04-21T18:08:57.371Z,18.90
2023-04-21T18:11:25.562Z,19.23
2023-04-21T18:13:54.919Z,21.00
2023-04-21T18:16:23.113Z,22.17
2023-04-21T18:18:51.234Z,21.80
2023-04-21T18:21:19.401Z,22.93
2023-04-21T18:23:47.509Z,23.10
2023-04-21T18:26:15.688Z,25.90
2023-04-21T18:28:43.846Z,25.17
2023-04-21T18:31:13.424Z,22.93
2023-04-21T18:33:41.552Z,22.50
2023-04-21T18:36:09.780Z,22.30
2023-04-21T18:38:37.898Z,24.17
2023-04-21T18:41:06.030Z,26.67
2023-04-21T18:43:34.130Z,30.53
2023-04-21T18:46:02.379Z,33.33
2023-04-21T18:48:31.921Z,34.57
2023-04-21T18:51:00.453Z,34.57
2023-04-21T18:53:28.617Z,33.67
2023-04-21T18:55:56.753Z,32.70
2023-04-21T18:58:24.823Z,31.20
2023-04-21T19:00:52.988Z,33.77
2023-04-21T19:03:21.442Z,36.80
2023-04-21T19:05:51.202Z,41.57
2023-04-21T19:08:30.058Z,49.77
2023-04-21T19:11:02.629Z,46.10
2023-04-21T19:13:30.800Z,48.03
2023-04-21T19:15:59.133Z,51.00
2023-04-21T19:18:27.280Z,50.70
2023-04-21T19:20:56.738Z,52.33
2023-04-21T19:23:24.771Z,59.67
2023-04-21T19:25:55.101Z,60.73
2023-04-21T19:28:23.215Z,62.63
2023-04-21T19:30:51.383Z,66.50
2023-04-21T19:33:19.438Z,70.77
2023-04-21T19:35:47.662Z,69.27
2023-04-21T19:38:17.171Z,75.50
2023-04-21T19:40:45.799Z,76.10
2023-04-21T19:43:15.118Z,72.27
2023-04-21T19:45:43.707Z,75.40
2023-04-21T19:48:12.797Z,77.97
2023-04-21T19:50:41.011Z,78.57
2023-04-21T19:53:14.433Z,84.80
2023-04-21T19:55:44.403Z,88.60
2023-04-21T19:58:13.219Z,90.50
2023-04-21T20:00:43.229Z,96.57
2023-04-21T20:03:12.372Z,96.07
2023-04-21T20:05:40.717Z,98.67
2023-04-21T20:08:09.099Z,97.77
2023-04-21T20:10:41.926Z,99.67
2023-04-21T20:13:11.681Z,98.67
2023-04-21T20:15:40.157Z,100.40
2023-04-21T20:18:09.028Z,100.77
2023-04-21T20:20:37.293Z,103.57
2023-04-21T20:23:05.774Z,107.53
2023-04-21T20:25:33.849Z,109.57
2023-04-21T20:28:02.083Z,111.10
2023-04-21T20:30:31.533Z,112.60
2023-04-21T20:32:59.728Z,109.97
2023-04-21T20:35:30.546Z,106.03
2023-04-21T20:38:01.333Z,105.80
2023-04-21T20:40:30.109Z,105.37
2023-04-21T20:42:58.761Z,103.37
2023-04-21T20:45:27.774Z,105.10
2023-04-21T20:47:57.473Z,104.57
2023-04-21T20:50:26.012Z,103.47
2023-04-21T20:52:54.182Z,100.50
2023-04-21T20:55:22.227Z,102.50
2023-04-21T20:57:50.505Z,95.20
2023-04-21T21:00:19.366Z,94.57
2023-04-21T21:02:47.604Z,89.20
2023-04-21T21:05:17.174Z,79.97
2023-04-21T21:07:45.322Z,75.17
2023-04-21T21:10:16.772Z,74.40
2023-04-21T21:12:46.352Z,72.90
2023-04-21T21:15:14.391Z,68.77
2023-04-21T21:17:42.618Z,68.97
2023-04-21T21:20:11.797Z,75.00
2023-04-21T21:22:43.157Z,71.00
2023-04-21T21:25:11.540Z,74.10
2023-04-21T21:27:39.596Z,73.10
2023-04-21T21:30:09.052Z,71.20
2023-04-21T21:32:37.174Z,81.27
2023-04-21T21:35:07.518Z,78.80
2023-04-21T21:37:35.711Z,81.20
2023-04-21T21:40:06.095Z,81.43
2023-04-21T21:42:34.183Z,84.93
2023-04-21T21:45:02.301Z,85.23
2023-04-21T21:47:30.428Z,90.37
2023-04-21T21:49:59.118Z,87.37
2023-04-21T21:52:28.624Z,94.50
2023-04-21T21:54:56.955Z,93.80
2023-04-21T21:57:26.774Z,96.57
2023-04-21T21:59:54.884Z,102.57
2023-04-21T22:02:23.059Z,102.77
2023-04-21T22:04:51.555Z,105.80
2023-04-21T22:07:19.982Z,104.33
2023-04-21T22:09:48.239Z,102.87
2023-04-21T22:12:16.373Z,104.20
2023-04-21T22:14:47.067Z,104.10
2023-04-21T22:17:15.915Z,103.80
2023-04-21T22:19:44.061Z,103.30
2023-04-21T22:22:12.179Z,106.37
2023-04-21T22:24:40.399Z,106.33
2023-04-21T22:27:08.684Z,105.83
2023-04-21T22:29:37.997Z,104.97
2023-04-21T22:32:07.855Z,107.00
2023-04-21T22:34:35.984Z,107.67
2023-04-21T22:37:05.675Z,108.37
2023-04-21T22:39:33.753Z,109.50
2023-04-21T22:42:02.453Z,108.80
2023-04-21T22:44:30.681Z,112.03
2023-04-21T22:46:59.168Z,110.40
2023-04-21T22:49:28.614Z,112.70
2023-04-21T22:51:56.702Z,113.40
2023-04-21T22:54:24.834Z,115.33
2023-04-21T22:56:53.131Z,115.70
2023-04-21T22:59:21.194Z,117.10
2023-04-21T23:01:49.408Z,116.93
2023-04-21T23:04:17.956Z,117.70
2023-04-21T23:06:47.386Z,118.07
2023-04-21T23:09:15.402Z,120.13
2023-04-21T23:11:43.681Z,119.43
2023-04-21T23:14:11.618Z,120.37
2023-04-21T23:16:39.789Z,120.00
2023-04-21T23:19:07.924Z,119.83
2023-04-21T23:21:36.146Z,122.23
2023-04-21T23:24:05.860Z,120.27
2023-04-21T23:26:33.995Z,121.50
2023-04-21T23:29:02.028Z,120.67
2023-04-21T23:31:30.703Z,121.20
2023-04-21T23:34:00.109Z,120.60
2023-04-21T23:36:28.383Z,123.00
2023-04-21T23:38:56.482Z,123.57
2023-04-21T23:41:25.963Z,120.47
2023-04-21T23:43:54.079Z,121.10
2023-04-21T23:46:22.147Z,118.70
2023-04-21T23:48:50.260Z,118.67
2023-04-21T23:51:18.578Z,121.53
2023-04-21T23:53:47.727Z,120.43
2023-04-21T23:56:16.410Z,124.03
2023-04-21T23:58:45.891Z,129.50
